createdAt,value
2022-10-17T00:01:18.357Z,3.00
2022-10-17T00:03:45.994Z,4.33
2022-10-17T00:06:15.743Z,2.40
2022-10-17T00:08:45.102Z,2.93
2022-10-17T00:11:16.846Z,3.10
2022-10-17T00:13:44.423Z,2.90
2022-10-17T00:16:13.503Z,2.80
2022-10-17T00:18:41.362Z,3.10
2022-10-17T00:21:16.587Z,2.70
2022-10-17T00:23:44.160Z,2.87
2022-10-17T00:26:12.010Z,2.88
2022-10-17T00:28:39.833Z,2.50
2022-10-17T00:31:08.570Z,2.57
2022-10-17T00:33:37.547Z,2.17
2022-10-17T00:36:07.058Z,3.27
2022-10-17T00:38:36.708Z,2.63
2022-10-17T00:41:05.196Z,2.73
2022-10-17T00:43:50.617Z,2.63
2022-10-17T00:46:18.514Z,2.20
2022-10-17T00:48:49.585Z,2.93
2022-10-17T00:51:18.631Z,2.40
2022-10-17T00:53:46.493Z,2.47
2022-10-17T00:56:14.710Z,3.40
2022-10-17T00:58:44.693Z,2.60
2022-10-17T01:01:12.366Z,2.23
2022-10-17T01:03:40.204Z,2.47
2022-10-17T01:06:09.097Z,2.87
2022-10-17T01:08:37.232Z,2.63
2022-10-17T01:11:17.879Z,2.60
2022-10-17T01:13:49.903Z,2.33
2022-10-17T01:16:23.188Z,2.03
2022-10-17T01:19:01.877Z,2.47
2022-10-17T01:21:50.656Z,2.40
2022-10-17T01:24:42.607Z,2.37
2022-10-17T01:27:38.207Z,2.20
2022-10-17T01:30:52.230Z,2.40
2022-10-17T01:33:31.825Z,2.50
2022-10-17T01:36:07.663Z,2.47
2022-10-17T01:38:40.116Z,2.63
2022-10-17T01:41:15.325Z,2.57
2022-10-17T01:43:50.659Z,2.57
2022-10-17T01:46:24.096Z,2.40
2022-10-17T01:48:54.638Z,2.83
2022-10-17T01:51:26.947Z,3.00
2022-10-17T01:54:01.049Z,3.00
2022-10-17T01:56:32.795Z,2.93
2022-10-17T01:59:03.869Z,2.20
2022-10-17T02:01:33.622Z,2.70
2022-10-17T02:04:04.889Z,2.20
2022-10-17T02:06:36.139Z,2.70
2022-10-17T02:09:18.169Z,2.17
2022-10-17T02:11:55.600Z,2.50
2022-10-17T02:14:34.198Z,2.13
2022-10-17T02:17:12.501Z,3.53
2022-10-17T02:19:52.182Z,2.93
2022-10-17T02:22:31.181Z,2.63
2022-10-17T02:25:03.983Z,2.60
2022-10-17T02:27:41.659Z,2.83
2022-10-17T02:30:13.353Z,2.70
2022-10-17T02:32:49.380Z,1.97
2022-10-17T02:35:24.993Z,2.63
2022-10-17T02:37:53.766Z,2.37
2022-10-17T02:40:25.289Z,2.80
2022-10-17T02:42:55.404Z,2.60
2022-10-17T02:45:27.181Z,3.23
2022-10-17T02:48:00.535Z,2.63
2022-10-17T02:50:39.748Z,3.37
2022-10-17T02:53:13.452Z,2.93
2022-10-17T02:55:46.895Z,3.00
2022-10-17T02:58:20.657Z,2.90
2022-10-17T03:00:49.436Z,2.80
2022-10-17T03:03:21.998Z,3.10
2022-10-17T03:05:51.041Z,2.93
2022-10-17T03:08:18.668Z,2.63
2022-10-17T03:10:46.536Z,2.67
2022-10-17T03:13:14.488Z,3.00
2022-10-17T03:15:42.376Z,2.40
2022-10-17T03:18:10.400Z,2.33
2022-10-17T03:20:38.117Z,2.70
2022-10-17T03:23:07.227Z,2.83
2022-10-17T03:25:35.181Z,2.73
2022-10-17T03:28:02.861Z,5.00
2022-10-17T03:30:30.484Z,2.67
2022-10-17T03:32:59.347Z,2.67
2022-10-17T03:35:28.258Z,2.70
2022-10-17T03:37:57.409Z,2.83
2022-10-17T03:40:28.543Z,2.70
2022-10-17T03:42:58.945Z,3.03
2022-10-17T03:45:26.846Z,2.60
2022-10-17T03:47:54.650Z,2.73
2022-10-17T03:50:22.209Z,2.47
2022-10-17T03:52:50.398Z,2.80
2022-10-17T03:55:18.426Z,2.20
2022-10-17T03:57:47.981Z,2.90
2022-10-17T04:00:17.797Z,2.70
2022-10-17T04:02:54.918Z,3.60
2022-10-17T04:05:22.505Z,2.27
2022-10-17T04:07:50.199Z,3.10
2022-10-17T04:10:21.560Z,2.90
2022-10-17T04:12:50.749Z,2.70
2022-10-17T04:15:19.317Z,2.43
2022-10-17T04:17:48.678Z,2.63
2022-10-17T04:20:17.725Z,3.10
2022-10-17T04:22:45.393Z,2.87
2022-10-17T04:25:14.177Z,2.50
2022-10-17T04:27:45.525Z,3.90
2022-10-17T04:30:15.976Z,3.20
2022-10-17T04:32:44.105Z,3.13
2022-10-17T04:35:20.780Z,3.80
2022-10-17T04:37:54.493Z,3.30
2022-10-17T04:40:22.632Z,3.73
2022-10-17T04:42:53.165Z,4.10
2022-10-17T04:45:25.797Z,3.87
2022-10-17T04:48:00.565Z,3.30
2022-10-17T04:50:28.323Z,4.03
2022-10-17T04:53:14.615Z,3.13
2022-10-17T04:55:42.714Z,3.37
2022-10-17T04:58:10.482Z,3.50
2022-10-17T05:00:40.170Z,3.45
2022-10-17T05:03:15.248Z,3.90
2022-10-17T05:05:43.847Z,3.92
2022-10-17T05:08:12.806Z,3.80
2022-10-17T05:10:43.494Z,3.70
2022-10-17T05:13:12.384Z,3.10
2022-10-17T05:15:42.812Z,3.87
2022-10-17T05:18:12.932Z,5.13
2022-10-17T05:20:43.367Z,4.20
2022-10-17T05:23:11.278Z,3.80
2022-10-17T05:25:42.522Z,3.70
2022-10-17T05:28:10.127Z,4.00
2022-10-17T05:30:39.478Z,3.37
2022-10-17T05:33:10.310Z,3.43
2022-10-17T05:35:37.916Z,4.07
2022-10-17T05:38:06.415Z,4.33
2022-10-17T05:40:35.848Z,3.50
2022-10-17T05:43:03.970Z,4.07
2022-10-17T05:45:31.841Z,4.73
2022-10-17T05:48:00.300Z,3.63
2022-10-17T05:50:31.993Z,3.90
2022-10-17T05:53:11.570Z,3.73
2022-10-17T05:55:45.528Z,4.50
2022-10-17T05:58:21.861Z,3.70
2022-10-17T06:00:53.015Z,3.90
2022-10-17T06:03:21.331Z,4.80
2022-10-17T06:05:50.259Z,4.30
2022-10-17T06:08:17.904Z,3.97
2022-10-17T06:10:49.199Z,5.00
2022-10-17T06:13:17.166Z,3.83
2022-10-17T06:15:48.060Z,4.38
2022-10-17T06:18:16.543Z,4.63
2022-10-17T06:20:46.086Z,3.80
2022-10-17T06:23:17.303Z,4.47
2022-10-17T06:25:59.402Z,4.60
2022-10-17T06:28:27.183Z,4.77
2022-10-17T06:30:55.484Z,4.23
2022-10-17T06:33:23.628Z,4.50
2022-10-17T06:35:55.373Z,4.80
2022-10-17T06:38:26.365Z,4.30
2022-10-17T06:41:04.849Z,4.80
2022-10-17T06:43:32.761Z,4.90
2022-10-17T06:46:26.643Z,4.10
2022-10-17T06:49:02.789Z,3.80
2022-10-17T06:51:38.685Z,3.80
2022-10-17T06:54:10.824Z,4.13
2022-10-17T06:56:57.209Z,4.40
2022-10-17T06:59:30.525Z,4.73
2022-10-17T07:02:15.225Z,4.57
2022-10-17T07:04:46.613Z,4.80
2022-10-17T07:07:14.192Z,4.50
2022-10-17T07:09:43.183Z,4.40
2022-10-17T07:12:12.705Z,5.30
2022-10-17T07:14:47.156Z,4.13
2022-10-17T07:17:14.961Z,3.87
2022-10-17T07:19:43.591Z,4.03
2022-10-17T07:22:12.827Z,5.23
2022-10-17T07:24:45.715Z,4.45
2022-10-17T07:27:25.351Z,4.70
2022-10-17T07:29:52.998Z,5.07
2022-10-17T07:32:36.218Z,4.50
2022-10-17T07:35:05.819Z,5.00
2022-10-17T07:37:34.357Z,5.70
2022-10-17T07:40:04.597Z,4.70
2022-10-17T07:42:32.324Z,4.90
2022-10-17T07:45:00.211Z,5.57
2022-10-17T07:47:31.384Z,5.22
2022-10-17T07:50:00.603Z,5.47
2022-10-17T07:52:28.417Z,5.00
2022-10-17T07:54:56.518Z,4.23
2022-10-17T07:57:25.615Z,4.87
2022-10-17T07:59:54.464Z,5.03
2022-10-17T08:02:25.260Z,4.30
2022-10-17T08:04:53.336Z,4.97
2022-10-17T08:07:26.819Z,4.47
2022-10-17T08:09:57.008Z,5.33
2022-10-17T08:12:26.348Z,3.67
2022-10-17T08:14:54.269Z,4.83
2022-10-17T08:17:21.970Z,4.67
2022-10-17T08:19:49.546Z,4.63
2022-10-17T08:22:17.172Z,4.03
2022-10-17T08:24:46.135Z,4.18
2022-10-17T08:27:13.805Z,3.90
2022-10-17T08:29:43.243Z,4.17
2022-10-17T08:32:10.985Z,3.97
2022-10-17T08:34:38.674Z,3.67
2022-10-17T08:37:06.352Z,4.03
2022-10-17T08:39:34.272Z,3.37
2022-10-17T08:42:30.059Z,3.67
2022-10-17T08:45:11.454Z,3.77
2022-10-17T08:47:42.624Z,4.30
2022-10-17T08:50:15.499Z,3.67
2022-10-17T08:52:48.942Z,4.27
2022-10-17T08:55:23.522Z,5.07
2022-10-17T08:57:51.275Z,3.60
2022-10-17T09:00:21.796Z,3.33
2022-10-17T09:03:03.111Z,3.70
2022-10-17T09:05:49.259Z,3.80
2022-10-17T09:08:32.321Z,3.47
2022-10-17T09:11:05.095Z,2.67
2022-10-17T09:13:44.728Z,2.73
2022-10-17T09:16:31.819Z,2.73
2022-10-17T09:19:04.525Z,3.50
2022-10-17T09:21:41.625Z,3.43
2022-10-17T09:24:16.548Z,3.77
2022-10-17T09:26:46.539Z,3.57
2022-10-17T09:29:21.079Z,2.93
2022-10-17T09:34:31.108Z,3.10
2022-10-17T09:37:00.913Z,3.13
2022-10-17T09:39:31.844Z,2.63
2022-10-17T09:42:01.558Z,3.87
2022-10-17T09:44:32.977Z,3.40
2022-10-17T09:47:14.146Z,3.00
2022-10-17T09:49:44.312Z,3.30
2022-10-17T09:52:15.687Z,2.90
2022-10-17T09:54:47.060Z,4.20
2022-10-17T09:57:16.355Z,2.97
2022-10-17T09:59:46.139Z,3.27
2022-10-17T10:02:24.188Z,3.90
2022-10-17T10:05:06.858Z,3.00
2022-10-17T10:07:37.619Z,2.97
2022-10-17T10:10:08.321Z,2.87
2022-10-17T10:12:37.885Z,3.30
2022-10-17T10:15:32.351Z,3.53
2022-10-17T10:18:01.768Z,2.67
2022-10-17T10:20:33.788Z,3.07
2022-10-17T10:23:12.977Z,3.07
2022-10-17T10:25:52.923Z,3.23
2022-10-17T10:28:21.580Z,3.17
2022-10-17T10:30:53.517Z,3.30
2022-10-17T10:33:26.023Z,3.00
2022-10-17T10:35:57.663Z,3.20
2022-10-17T10:38:25.444Z,2.97
2022-10-17T10:40:56.701Z,3.00
2022-10-17T10:43:32.273Z,2.53
2022-10-17T10:46:01.046Z,2.97
2022-10-17T10:48:34.781Z,2.67
2022-10-17T10:51:06.518Z,3.00
2022-10-17T10:53:42.851Z,3.07
2022-10-17T10:56:17.015Z,2.90
2022-10-17T10:58:54.843Z,2.70
2022-10-17T11:01:29.664Z,2.60
2022-10-17T11:04:08.477Z,2.70
2022-10-17T11:06:40.759Z,3.07
2022-10-17T11:09:19.319Z,3.00
2022-10-17T11:11:53.439Z,2.83
2022-10-17T11:14:29.036Z,3.67
2022-10-17T11:17:03.144Z,3.47
2022-10-17T11:19:38.041Z,2.90
2022-10-17T11:22:12.370Z,3.13
2022-10-17T11:24:47.585Z,2.97
2022-10-17T11:27:15.541Z,2.60
2022-10-17T11:29:44.978Z,3.20
2022-10-17T11:32:19.206Z,2.70
2022-10-17T11:34:53.265Z,2.67
2022-10-17T11:37:25.330Z,3.00
2022-10-17T11:39:56.677Z,2.50
2022-10-17T11:42:29.640Z,3.03
2022-10-17T11:45:02.956Z,3.20
2022-10-17T11:47:44.768Z,2.67
2022-10-17T11:53:15.779Z,2.87
2022-10-17T11:55:44.292Z,3.17
2022-10-17T12:01:07.951Z,3.03
2022-10-17T12:03:50.985Z,2.80
2022-10-17T12:06:32.819Z,2.60
2022-10-17T12:09:09.806Z,3.00
2022-10-17T12:11:46.386Z,3.53
2022-10-17T12:14:37.663Z,3.10
2022-10-17T12:17:06.900Z,3.43
2022-10-17T12:19:36.607Z,3.37
2022-10-17T12:22:21.482Z,2.87
2022-10-17T12:24:58.878Z,3.13
2022-10-17T12:27:39.614Z,2.80
2022-10-17T12:30:17.885Z,3.58
2022-10-17T12:33:05.766Z,3.13
2022-10-17T12:35:36.347Z,2.90
2022-10-17T12:38:24.501Z,3.20
2022-10-17T12:41:10.502Z,3.17
2022-10-17T12:46:49.397Z,2.70
2022-10-17T12:49:39.979Z,3.40
2022-10-17T12:52:22.077Z,2.70
2022-10-17T12:55:10.870Z,3.60
2022-10-17T12:57:53.357Z,3.10
2022-10-17T13:00:30.532Z,3.53
2022-10-17T13:03:05.535Z,3.20
2022-10-17T13:05:35.761Z,3.40
2022-10-17T13:08:07.252Z,3.23
2022-10-17T13:10:43.041Z,3.20
2022-10-17T13:13:18.660Z,3.47
2022-10-17T13:15:49.771Z,2.97
2022-10-17T13:18:22.062Z,3.43
2022-10-17T13:20:58.563Z,3.43
2022-10-17T13:23:27.522Z,3.28
2022-10-17T13:26:19.941Z,3.73
2022-10-17T13:29:01.242Z,4.20
2022-10-17T13:31:31.718Z,4.10
2022-10-17T13:34:00.938Z,3.63
2022-10-17T13:36:30.022Z,3.10
2022-10-17T13:38:59.748Z,3.83
2022-10-17T13:41:35.815Z,2.93
2022-10-17T13:44:08.668Z,3.17
2022-10-17T13:46:38.957Z,2.80
2022-10-17T13:49:13.698Z,3.30
2022-10-17T13:51:45.936Z,3.37
2022-10-17T13:54:32.472Z,4.10
2022-10-17T13:57:03.045Z,3.27
2022-10-17T13:59:37.603Z,4.20
2022-10-17T14:02:05.923Z,3.80
2022-10-17T14:04:56.644Z,3.47
2022-10-17T14:07:29.297Z,3.37
2022-10-17T14:09:59.343Z,3.20
2022-10-17T14:12:28.624Z,3.23
2022-10-17T14:15:10.186Z,3.80
2022-10-17T14:17:38.928Z,4.53
2022-10-17T14:20:48.241Z,3.40
2022-10-17T14:23:21.432Z,3.70
2022-10-17T14:25:44.457Z,4.77
2022-10-17T14:28:18.276Z,4.93
2022-10-17T14:31:03.195Z,5.67
2022-10-17T14:33:33.870Z,6.90
2022-10-17T14:36:05.398Z,5.40
2022-10-17T14:38:33.290Z,5.20
2022-10-17T14:41:37.362Z,6.30
2022-10-17T14:43:59.129Z,5.43
2022-10-17T14:46:27.930Z,6.90
2022-10-17T14:49:08.693Z,5.03
2022-10-17T14:51:50.235Z,6.10
2022-10-17T14:54:29.100Z,6.07
2022-10-17T14:56:56.788Z,5.10
2022-10-17T14:59:52.154Z,4.83
2022-10-17T15:02:14.431Z,5.10
2022-10-17T15:04:42.035Z,6.30
2022-10-17T15:07:14.126Z,5.20
2022-10-17T15:09:42.096Z,4.90
2022-10-17T15:12:16.136Z,5.87
2022-10-17T15:14:47.932Z,6.80
2022-10-17T15:17:29.145Z,5.60
2022-10-17T15:19:59.141Z,6.70
2022-10-17T15:22:27.515Z,8.25
2022-10-17T15:24:55.354Z,6.83
2022-10-17T15:27:24.911Z,9.93
2022-10-17T15:29:53.833Z,10.03
2022-10-17T15:32:21.634Z,7.50
2022-10-17T15:34:49.389Z,7.80
2022-10-17T15:37:22.110Z,9.00
2022-10-17T15:39:53.327Z,7.70
2022-10-17T15:42:22.424Z,11.10
2022-10-17T15:44:50.469Z,15.80
2022-10-17T15:47:25.856Z,16.40
2022-10-17T15:49:53.970Z,18.80
2022-10-17T15:52:21.784Z,8.90
2022-10-17T15:54:49.454Z,7.97
2022-10-17T15:57:21.786Z,10.93
2022-10-17T15:59:50.411Z,10.07
2022-10-17T16:02:20.209Z,10.70
2022-10-17T16:04:50.843Z,7.60
2022-10-17T16:07:19.252Z,6.70
2022-10-17T16:09:47.299Z,8.90
2022-10-17T16:12:18.229Z,5.50
2022-10-17T16:14:46.352Z,5.60
2022-10-17T16:17:14.953Z,5.77
2022-10-17T16:19:43.180Z,4.88
2022-10-17T16:22:21.198Z,4.73
2022-10-17T16:24:48.881Z,5.23
2022-10-17T16:27:16.480Z,7.30
2022-10-17T16:29:44.165Z,12.13
2022-10-17T16:32:11.815Z,14.10
2022-10-17T16:34:39.478Z,17.77
2022-10-17T16:37:07.195Z,15.90
2022-10-17T16:39:36.213Z,12.50
2022-10-17T16:42:03.929Z,7.43
2022-10-17T16:44:31.777Z,6.57
2022-10-17T16:46:59.518Z,9.00
2022-10-17T16:49:27.175Z,9.70
2022-10-17T16:51:54.735Z,6.70
2022-10-17T16:54:22.455Z,7.03
2022-10-17T16:56:51.800Z,7.40
2022-10-17T16:59:19.509Z,6.70
2022-10-17T17:01:47.484Z,8.30
2022-10-17T17:04:15.269Z,8.50
2022-10-17T17:09:16.115Z,6.40
2022-10-17T17:11:43.836Z,6.90
2022-10-17T17:14:12.963Z,6.33
2022-10-17T17:16:40.865Z,6.90
2022-10-17T17:19:11.912Z,5.17
2022-10-17T17:21:39.949Z,7.07
2022-10-17T17:24:07.593Z,6.00
2022-10-17T17:26:37.018Z,6.00
2022-10-17T17:29:05.162Z,5.97
2022-10-17T17:31:36.260Z,5.47
2022-10-17T17:34:04.481Z,6.47
2022-10-17T17:36:35.501Z,8.33
2022-10-17T17:39:06.842Z,6.70
2022-10-17T17:41:35.346Z,6.57
2022-10-17T17:44:04.065Z,5.97
2022-10-17T17:46:32.783Z,6.03
2022-10-17T17:49:02.111Z,7.30
2022-10-17T17:51:29.866Z,6.80
2022-10-17T17:53:58.379Z,6.70
2022-10-17T17:56:28.313Z,6.70
2022-10-17T17:58:58.115Z,6.50
2022-10-17T18:01:28.562Z,6.10
2022-10-17T18:03:58.874Z,7.00
2022-10-17T18:06:28.834Z,7.00
2022-10-17T18:08:58.889Z,7.30
2022-10-17T18:11:27.693Z,8.40
2022-10-17T18:13:57.277Z,7.38
2022-10-17T18:16:25.609Z,7.13
2022-10-17T18:18:53.779Z,6.57
2022-10-17T18:21:22.282Z,7.37
2022-10-17T18:23:52.661Z,7.17
2022-10-17T18:26:20.334Z,7.17
2022-10-17T18:28:48.311Z,7.30
2022-10-17T18:31:21.914Z,8.30
2022-10-17T18:33:52.669Z,7.70
2022-10-17T18:36:22.682Z,7.17
2022-10-17T18:38:51.768Z,6.43
2022-10-17T18:41:20.885Z,7.13
2022-10-17T18:43:50.110Z,7.00
2022-10-17T18:46:20.240Z,7.40
2022-10-17T18:48:49.023Z,7.27
2022-10-17T18:51:19.180Z,7.43
2022-10-17T18:53:48.808Z,7.13
2022-10-17T18:56:19.062Z,7.60
2022-10-17T18:58:46.940Z,6.50
2022-10-17T19:01:16.682Z,7.07
2022-10-17T19:03:45.807Z,6.97
2022-10-17T19:06:15.595Z,6.82
2022-10-17T19:08:44.248Z,6.80
2022-10-17T19:11:13.746Z,6.97
2022-10-17T19:16:18.657Z,7.80
2022-10-17T19:18:50.629Z,7.90
2022-10-17T19:21:21.784Z,7.00
2022-10-17T19:23:52.192Z,6.53
2022-10-17T19:26:20.871Z,8.27
2022-10-17T19:28:52.119Z,8.43
2022-10-17T19:31:26.299Z,7.63
2022-10-17T19:33:55.226Z,9.05
2022-10-17T19:36:27.590Z,9.10
2022-10-17T19:38:58.531Z,7.97
2022-10-17T19:41:26.364Z,8.37
2022-10-17T19:43:55.593Z,8.73
2022-10-17T19:46:25.727Z,6.90
2022-10-17T19:48:53.730Z,7.30
2022-10-17T19:51:24.523Z,8.40
2022-10-17T19:53:53.355Z,7.67
2022-10-17T19:56:21.955Z,6.43
2022-10-17T19:58:50.523Z,6.83
2022-10-17T20:01:21.889Z,6.20
2022-10-17T20:03:49.866Z,6.15
2022-10-17T20:06:18.319Z,7.00
2022-10-17T20:08:46.524Z,6.97
2022-10-17T20:11:16.368Z,5.77
2022-10-17T20:13:44.825Z,6.53
2022-10-17T20:16:14.387Z,6.53
2022-10-17T20:18:44.058Z,6.30
2022-10-17T20:21:14.013Z,6.53
2022-10-17T20:23:42.368Z,7.57
2022-10-17T20:26:25.978Z,6.63
2022-10-17T20:29:02.011Z,6.47
2022-10-17T20:31:33.914Z,6.20
2022-10-17T20:34:03.440Z,6.80
2022-10-17T20:36:31.189Z,6.87
2022-10-17T20:38:59.913Z,6.50
2022-10-17T20:41:28.136Z,7.00
2022-10-17T20:44:02.216Z,6.60
2022-10-17T20:46:36.948Z,6.10
2022-10-17T20:49:08.595Z,6.40
2022-10-17T20:51:36.736Z,7.30
2022-10-17T20:54:04.855Z,6.70
2022-10-17T20:56:34.165Z,6.25
2022-10-17T20:59:06.148Z,6.90
2022-10-17T21:01:36.572Z,5.83
2022-10-17T21:06:54.368Z,6.77
2022-10-17T21:09:22.683Z,7.00
2022-10-17T21:11:54.874Z,6.13
2022-10-17T21:14:23.629Z,6.93
2022-10-17T21:16:52.052Z,6.20
2022-10-17T21:19:20.790Z,6.67
2022-10-17T21:21:48.439Z,6.13
2022-10-17T21:24:20.378Z,6.20
2022-10-17T21:26:55.140Z,5.97
2022-10-17T21:29:23.683Z,7.00
2022-10-17T21:31:51.366Z,5.95
2022-10-17T21:34:21.734Z,6.80
2022-10-17T21:36:49.705Z,5.70
2022-10-17T21:39:18.965Z,6.90
2022-10-17T21:41:46.602Z,5.30
2022-10-17T21:44:16.408Z,6.53
2022-10-17T21:46:44.768Z,7.00
2022-10-17T21:49:13.827Z,6.37
2022-10-17T21:51:41.979Z,7.00
2022-10-17T21:54:09.916Z,7.10
2022-10-17T21:56:38.875Z,6.90
2022-10-17T21:59:06.516Z,6.50
2022-10-17T22:01:36.031Z,6.30
2022-10-17T22:04:05.248Z,6.20
2022-10-17T22:06:40.318Z,6.57
2022-10-17T22:09:12.667Z,6.80
2022-10-17T22:11:42.076Z,6.93
2022-10-17T22:14:13.733Z,7.23
2022-10-17T22:16:41.515Z,6.40
2022-10-17T22:19:09.775Z,5.97
2022-10-17T22:21:37.904Z,6.47
2022-10-17T22:24:07.972Z,6.93
2022-10-17T22:26:37.334Z,5.70
2022-10-17T22:29:08.043Z,6.77
2022-10-17T22:31:36.589Z,6.63
2022-10-17T22:34:05.599Z,6.50
2022-10-17T22:36:33.734Z,7.30
2022-10-17T22:39:01.573Z,8.07
2022-10-17T22:41:29.115Z,5.80
2022-10-17T22:43:56.898Z,7.57
2022-10-17T22:46:26.701Z,6.97
2022-10-17T22:48:54.242Z,6.33
2022-10-17T22:51:21.811Z,6.37
2022-10-17T22:53:53.849Z,8.40
2022-10-17T22:56:22.755Z,7.23
2022-10-17T22:58:51.027Z,6.85
2022-10-17T23:01:20.237Z,7.30
2022-10-17T23:03:49.750Z,9.10
2022-10-17T23:06:17.463Z,7.85
2022-10-17T23:08:45.876Z,7.67
2022-10-17T23:11:14.092Z,9.00
2022-10-17T23:13:41.983Z,9.32
2022-10-17T23:16:10.177Z,7.00
2022-10-17T23:18:38.902Z,7.87
2022-10-17T23:21:08.673Z,7.80
2022-10-17T23:23:37.187Z,7.47
2022-10-17T23:26:06.522Z,8.80
2022-10-17T23:28:35.590Z,6.43
2022-10-17T23:31:11.066Z,6.30
2022-10-17T23:33:41.131Z,5.90
2022-10-17T23:36:10.945Z,6.97
2022-10-17T23:38:38.868Z,7.50
2022-10-17T23:41:06.974Z,6.70
2022-10-17T23:43:35.037Z,6.90
2022-10-17T23:46:03.297Z,8.13
2022-10-17T23:48:31.339Z,6.10
2022-10-17T23:50:59.019Z,7.50
2022-10-17T23:53:28.187Z,9.40
2022-10-17T23:55:55.826Z,8.03
2022-10-17T23:58:23.432Z,7.80
